MMPN/UPN METAR and TAF weather

Enter ICAO airport designator
Station Type Date Time Source
MMPN METAR 2022/08/12 13:40 UTC NOAA

MMPN 121340Z 00000KT 8SM OVC250 16/16 A3021 RMK 8/007 HZY


Station Type Date Time Source
MMPN Decoded METAR 2022/08/12 13:40 UTC NOAA

Uruapan / Gen Rayon, Mexico (MMPN) 19-24N 102-02W
Aug 12, 2022 - 09:40 AM EDT / 2022.08.12 1340 UTC
Wind: Calm:0
Visibility: 8 mile(s):0
Sky conditions: overcast
Temperature: 60 F (16 C)
Dew Point: 60 F (16 C)
Relative Humidity: 100%
Pressure (altimeter): 30.21 in. Hg (1023 hPa)
ob: MMPN 121340Z 00000KT 8SM OVC250 16/16 A3021 RMK 8/007 HZY
cycle: 13

Station Type Date Time Source
MMPN TAF 2022/08/12 06:13 UTC NOAA

TAF MMPN 120510Z 1206/1306 00000KT 6SM HZ SCT040 SCT080 BKN250
TEMPO 1211/1215 3SM BR HZ SCT020
FM121800 18010KT P6SM SCT025CB BKN080 OVC250
FM122200 18008KT 6SM -RA BKN020CB OVC070
TEMPO 1222/1302 2SM TSRA BKN010CB

Example: see airport list